sensor_id;sensor_type;location;lat;lon;timestamp;P1;durP1;ratioP1;P2;durP2;ratioP2
84897;SDS011;75162;42.120;21.734;2024-03-07T00:01:03;23.83;;;12.55;;
84897;SDS011;75162;42.120;21.734;2024-03-07T00:03:29;18.98;;;11.35;;
84897;SDS011;75162;42.120;21.734;2024-03-07T00:05:56;15.10;;;9.73;;
84897;SDS011;75162;42.120;21.734;2024-03-07T00:08:22;13.63;;;8.75;;
84897;SDS011;75162;42.120;21.734;2024-03-07T00:10:49;14.75;;;9.55;;
84897;SDS011;75162;42.120;21.734;2024-03-07T00:13:15;15.48;;;9.55;;
84897;SDS011;75162;42.120;21.734;2024-03-07T00:15:42;18.50;;;11.40;;
84897;SDS011;75162;42.120;21.734;2024-03-07T00:18:08;15.57;;;10.30;;
84897;SDS011;75162;42.120;21.734;2024-03-07T00:20:35;14.30;;;10.45;;
84897;SDS011;75162;42.120;21.734;2024-03-07T00:23:01;13.85;;;8.57;;
84897;SDS011;75162;42.120;21.734;2024-03-07T00:25:28;11.60;;;6.97;;
84897;SDS011;75162;42.120;21.734;2024-03-07T00:27:56;13.38;;;7.68;;
84897;SDS011;75162;42.120;21.734;2024-03-07T00:30:27;11.95;;;8.02;;
84897;SDS011;75162;42.120;21.734;2024-03-07T00:32:55;14.48;;;8.25;;
84897;SDS011;75162;42.120;21.734;2024-03-07T00:35:21;11.60;;;7.28;;
84897;SDS011;75162;42.120;21.734;2024-03-07T00:37:47;11.35;;;6.28;;
84897;SDS011;75162;42.120;21.734;2024-03-07T00:40:14;13.10;;;7.60;;
84897;SDS011;75162;42.120;21.734;2024-03-07T00:42:41;11.68;;;7.05;;
84897;SDS011;75162;42.120;21.734;2024-03-07T00:45:08;12.20;;;6.50;;
84897;SDS011;75162;42.120;21.734;2024-03-07T00:47:34;11.75;;;7.53;;
84897;SDS011;75162;42.120;21.734;2024-03-07T00:50:00;12.50;;;7.63;;
84897;SDS011;75162;42.120;21.734;2024-03-07T00:52:27;12.75;;;6.93;;
84897;SDS011;75162;42.120;21.734;2024-03-07T00:54:53;12.77;;;6.82;;
84897;SDS011;75162;42.120;21.734;2024-03-07T00:57:20;10.55;;;7.03;;
84897;SDS011;75162;42.120;21.734;2024-03-07T00:59:46;12.80;;;7.63;;
84897;SDS011;75162;42.120;21.734;2024-03-07T01:02:15;12.68;;;7.75;;
84897;SDS011;75162;42.120;21.734;2024-03-07T01:04:44;11.70;;;7.90;;
84897;SDS011;75162;42.120;21.734;2024-03-07T01:07:10;12.63;;;7.72;;
84897;SDS011;75162;42.120;21.734;2024-03-07T01:09:37;12.18;;;7.82;;
84897;SDS011;75162;42.120;21.734;2024-03-07T01:12:04;13.18;;;7.97;;
84897;SDS011;75162;42.120;21.734;2024-03-07T01:14:30;14.48;;;8.50;;
84897;SDS011;75162;42.120;21.734;2024-03-07T01:16:57;12.00;;;8.45;;
84897;SDS011;75162;42.120;21.734;2024-03-07T01:19:23;14.60;;;8.73;;
84897;SDS011;75162;42.120;21.734;2024-03-07T01:21:49;14.85;;;9.57;;
84897;SDS011;75162;42.120;21.734;2024-03-07T01:24:16;14.45;;;8.25;;
84897;SDS011;75162;42.120;21.734;2024-03-07T01:26:45;18.77;;;10.63;;
84897;SDS011;75162;42.120;21.734;2024-03-07T01:29:11;21.35;;;13.13;;
84897;SDS011;75162;42.120;21.734;2024-03-07T01:31:38;20.90;;;12.15;;
84897;SDS011;75162;42.120;21.734;2024-03-07T01:34:05;17.48;;;10.85;;
84897;SDS011;75162;42.120;21.734;2024-03-07T01:36:32;13.77;;;9.45;;
84897;SDS011;75162;42.120;21.734;2024-03-07T01:38:58;23.90;;;13.32;;
84897;SDS011;75162;42.120;21.734;2024-03-07T01:41:24;22.35;;;12.65;;
84897;SDS011;75162;42.120;21.734;2024-03-07T01:43:51;23.08;;;13.35;;
84897;SDS011;75162;42.120;21.734;2024-03-07T01:46:18;16.42;;;9.90;;
84897;SDS011;75162;42.120;21.734;2024-03-07T01:48:47;21.42;;;12.43;;
84897;SDS011;75162;42.120;21.734;2024-03-07T01:51:13;16.77;;;9.98;;
84897;SDS011;75162;42.120;21.734;2024-03-07T01:53:40;14.77;;;9.38;;
84897;SDS011;75162;42.120;21.734;2024-03-07T01:56:06;16.50;;;10.05;;
84897;SDS011;75162;42.120;21.734;2024-03-07T01:58:33;19.13;;;11.82;;
84897;SDS011;75162;42.120;21.734;2024-03-07T02:01:01;18.58;;;10.82;;
84897;SDS011;75162;42.120;21.734;2024-03-07T02:03:27;18.80;;;11.27;;
84897;SDS011;75162;42.120;21.734;2024-03-07T02:05:57;16.17;;;10.25;;
84897;SDS011;75162;42.120;21.734;2024-03-07T02:08:23;16.33;;;10.93;;
84897;SDS011;75162;42.120;21.734;2024-03-07T02:10:50;16.13;;;10.23;;
84897;SDS011;75162;42.120;21.734;2024-03-07T02:13:16;17.17;;;10.07;;
84897;SDS011;75162;42.120;21.734;2024-03-07T02:15:43;15.55;;;9.65;;
84897;SDS011;75162;42.120;21.734;2024-03-07T02:18:10;16.75;;;10.85;;
84897;SDS011;75162;42.120;21.734;2024-03-07T02:20:36;11.38;;;7.75;;
84897;SDS011;75162;42.120;21.734;2024-03-07T02:23:03;14.68;;;9.00;;
84897;SDS011;75162;42.120;21.734;2024-03-07T02:25:29;13.63;;;8.85;;
84897;SDS011;75162;42.120;21.734;2024-03-07T02:27:57;15.65;;;8.55;;
84897;SDS011;75162;42.120;21.734;2024-03-07T02:30:23;11.68;;;8.07;;
84897;SDS011;75162;42.120;21.734;2024-03-07T02:32:50;14.30;;;7.75;;
84897;SDS011;75162;42.120;21.734;2024-03-07T02:35:19;11.23;;;7.65;;
84897;SDS011;75162;42.120;21.734;2024-03-07T02:37:46;10.45;;;7.68;;
84897;SDS011;75162;42.120;21.734;2024-03-07T02:40:13;11.52;;;7.65;;
84897;SDS011;75162;42.120;21.734;2024-03-07T02:42:39;14.70;;;8.50;;
84897;SDS011;75162;42.120;21.734;2024-03-07T02:45:06;14.57;;;9.77;;
84897;SDS011;75162;42.120;21.734;2024-03-07T02:47:33;15.55;;;10.57;;
84897;SDS011;75162;42.120;21.734;2024-03-07T02:50:01;16.52;;;9.13;;
84897;SDS011;75162;42.120;21.734;2024-03-07T02:52:27;16.90;;;9.35;;
84897;SDS011;75162;42.120;21.734;2024-03-07T02:54:54;16.35;;;9.77;;
84897;SDS011;75162;42.120;21.734;2024-03-07T02:57:21;13.88;;;8.48;;
84897;SDS011;75162;42.120;21.734;2024-03-07T02:59:48;13.40;;;7.53;;
84897;SDS011;75162;42.120;21.734;2024-03-07T03:02:14;12.50;;;6.85;;
84897;SDS011;75162;42.120;21.734;2024-03-07T03:04:41;12.70;;;8.35;;
84897;SDS011;75162;42.120;21.734;2024-03-07T03:07:07;11.85;;;7.60;;
84897;SDS011;75162;42.120;21.734;2024-03-07T03:09:35;12.13;;;7.18;;
84897;SDS011;75162;42.120;21.734;2024-03-07T03:12:05;13.50;;;7.57;;
84897;SDS011;75162;42.120;21.734;2024-03-07T03:14:31;12.00;;;7.22;;
84897;SDS011;75162;42.120;21.734;2024-03-07T03:16:58;13.90;;;6.97;;
84897;SDS011;75162;42.120;21.734;2024-03-07T03:19:24;9.63;;;6.65;;
84897;SDS011;75162;42.120;21.734;2024-03-07T03:21:51;9.57;;;7.60;;
84897;SDS011;75162;42.120;21.734;2024-03-07T03:24:18;13.57;;;7.25;;
84897;SDS011;75162;42.120;21.734;2024-03-07T03:26:45;11.32;;;7.10;;
84897;SDS011;75162;42.120;21.734;2024-03-07T03:29:11;11.63;;;7.22;;
84897;SDS011;75162;42.120;21.734;2024-03-07T03:31:39;14.07;;;7.85;;
84897;SDS011;75162;42.120;21.734;2024-03-07T03:34:06;14.00;;;7.10;;
84897;SDS011;75162;42.120;21.734;2024-03-07T03:36:34;11.35;;;6.78;;
84897;SDS011;75162;42.120;21.734;2024-03-07T03:39:01;11.35;;;7.50;;
84897;SDS011;75162;42.120;21.734;2024-03-07T03:41:28;11.20;;;7.28;;
84897;SDS011;75162;42.120;21.734;2024-03-07T03:43:55;10.82;;;6.32;;
84897;SDS011;75162;42.120;21.734;2024-03-07T03:46:23;10.20;;;6.55;;
84897;SDS011;75162;42.120;21.734;2024-03-07T03:48:49;9.48;;;6.13;;
84897;SDS011;75162;42.120;21.734;2024-03-07T03:51:16;12.00;;;6.70;;
84897;SDS011;75162;42.120;21.734;2024-03-07T03:53:43;9.98;;;6.80;;
84897;SDS011;75162;42.120;21.734;2024-03-07T03:56:10;12.20;;;6.97;;
84897;SDS011;75162;42.120;21.734;2024-03-07T03:58:40;9.45;;;6.32;;
84897;SDS011;75162;42.120;21.734;2024-03-07T04:01:08;11.88;;;6.72;;
84897;SDS011;75162;42.120;21.734;2024-03-07T04:03:38;9.85;;;6.70;;
84897;SDS011;75162;42.120;21.734;2024-03-07T04:06:05;9.38;;;6.07;;
84897;SDS011;75162;42.120;21.734;2024-03-07T04:08:32;11.77;;;6.25;;
84897;SDS011;75162;42.120;21.734;2024-03-07T04:10:58;8.75;;;6.28;;
84897;SDS011;75162;42.120;21.734;2024-03-07T04:13:24;11.70;;;6.32;;
84897;SDS011;75162;42.120;21.734;2024-03-07T04:15:52;8.95;;;5.68;;
84897;SDS011;75162;42.120;21.734;2024-03-07T04:18:18;10.82;;;6.75;;
84897;SDS011;75162;42.120;21.734;2024-03-07T04:20:45;12.27;;;7.22;;
84897;SDS011;75162;42.120;21.734;2024-03-07T04:23:12;11.15;;;7.07;;
84897;SDS011;75162;42.120;21.734;2024-03-07T04:25:38;10.98;;;7.05;;
84897;SDS011;75162;42.120;21.734;2024-03-07T04:28:05;10.60;;;7.85;;
84897;SDS011;75162;42.120;21.734;2024-03-07T04:30:33;11.85;;;7.47;;
84897;SDS011;75162;42.120;21.734;2024-03-07T04:32:59;13.77;;;6.97;;
84897;SDS011;75162;42.120;21.734;2024-03-07T04:35:26;11.93;;;8.07;;
84897;SDS011;75162;42.120;21.734;2024-03-07T04:37:52;11.63;;;7.63;;
84897;SDS011;75162;42.120;21.734;2024-03-07T04:40:18;14.85;;;7.90;;
84897;SDS011;75162;42.120;21.734;2024-03-07T04:42:47;11.43;;;7.28;;
84897;SDS011;75162;42.120;21.734;2024-03-07T04:45:19;10.73;;;7.53;;
84897;SDS011;75162;42.120;21.734;2024-03-07T04:47:46;12.90;;;7.68;;
84897;SDS011;75162;42.120;21.734;2024-03-07T04:50:13;11.23;;;7.15;;
84897;SDS011;75162;42.120;21.734;2024-03-07T04:52:42;14.18;;;8.15;;
84897;SDS011;75162;42.120;21.734;2024-03-07T04:55:09;14.88;;;8.05;;
84897;SDS011;75162;42.120;21.734;2024-03-07T04:57:36;12.13;;;8.23;;
84897;SDS011;75162;42.120;21.734;2024-03-07T05:00:05;11.82;;;7.57;;
84897;SDS011;75162;42.120;21.734;2024-03-07T05:02:32;13.90;;;7.93;;
84897;SDS011;75162;42.120;21.734;2024-03-07T05:04:59;12.13;;;7.55;;
84897;SDS011;75162;42.120;21.734;2024-03-07T05:07:25;15.48;;;8.95;;
84897;SDS011;75162;42.120;21.734;2024-03-07T05:09:52;12.38;;;8.27;;
84897;SDS011;75162;42.120;21.734;2024-03-07T05:12:18;12.52;;;8.00;;
84897;SDS011;75162;42.120;21.734;2024-03-07T05:14:45;14.60;;;9.35;;
84897;SDS011;75162;42.120;21.734;2024-03-07T05:17:11;13.98;;;7.75;;
84897;SDS011;75162;42.120;21.734;2024-03-07T05:19:37;12.88;;;7.80;;
84897;SDS011;75162;42.120;21.734;2024-03-07T05:22:03;14.10;;;8.05;;
84897;SDS011;75162;42.120;21.734;2024-03-07T05:24:30;15.93;;;8.95;;
84897;SDS011;75162;42.120;21.734;2024-03-07T05:26:58;12.80;;;8.38;;
84897;SDS011;75162;42.120;21.734;2024-03-07T05:29:24;15.40;;;9.25;;
84897;SDS011;75162;42.120;21.734;2024-03-07T05:31:50;12.35;;;7.68;;
84897;SDS011;75162;42.120;21.734;2024-03-07T05:34:16;12.85;;;8.68;;
84897;SDS011;75162;42.120;21.734;2024-03-07T05:36:48;16.73;;;9.23;;
84897;SDS011;75162;42.120;21.734;2024-03-07T05:39:15;12.73;;;8.48;;
84897;SDS011;75162;42.120;21.734;2024-03-07T05:41:43;15.18;;;9.32;;
84897;SDS011;75162;42.120;21.734;2024-03-07T05:44:13;15.90;;;9.55;;
84897;SDS011;75162;42.120;21.734;2024-03-07T05:46:40;16.88;;;9.90;;
84897;SDS011;75162;42.120;21.734;2024-03-07T05:49:10;20.95;;;12.40;;
84897;SDS011;75162;42.120;21.734;2024-03-07T05:51:37;18.65;;;11.15;;
84897;SDS011;75162;42.120;21.734;2024-03-07T05:54:03;17.15;;;10.23;;
84897;SDS011;75162;42.120;21.734;2024-03-07T05:56:32;23.33;;;13.38;;
84897;SDS011;75162;42.120;21.734;2024-03-07T05:59:02;23.77;;;14.23;;
84897;SDS011;75162;42.120;21.734;2024-03-07T06:01:34;19.42;;;12.48;;
84897;SDS011;75162;42.120;21.734;2024-03-07T06:04:01;27.45;;;17.73;;
84897;SDS011;75162;42.120;21.734;2024-03-07T06:06:28;26.45;;;16.90;;
84897;SDS011;75162;42.120;21.734;2024-03-07T06:08:57;24.73;;;17.48;;
84897;SDS011;75162;42.120;21.734;2024-03-07T06:11:23;22.08;;;12.23;;
84897;SDS011;75162;42.120;21.734;2024-03-07T06:13:50;19.88;;;10.82;;
84897;SDS011;75162;42.120;21.734;2024-03-07T06:16:17;19.02;;;11.30;;
84897;SDS011;75162;42.120;21.734;2024-03-07T06:18:43;16.23;;;10.48;;
84897;SDS011;75162;42.120;21.734;2024-03-07T06:21:12;17.20;;;11.43;;
84897;SDS011;75162;42.120;21.734;2024-03-07T06:23:38;18.80;;;12.80;;
84897;SDS011;75162;42.120;21.734;2024-03-07T06:26:05;29.60;;;15.82;;
84897;SDS011;75162;42.120;21.734;2024-03-07T06:28:38;28.20;;;17.65;;
84897;SDS011;75162;42.120;21.734;2024-03-07T06:31:04;20.73;;;14.88;;
84897;SDS011;75162;42.120;21.734;2024-03-07T06:33:33;25.98;;;17.48;;
84897;SDS011;75162;42.120;21.734;2024-03-07T06:35:59;22.30;;;14.32;;
84897;SDS011;75162;42.120;21.734;2024-03-07T06:38:29;25.73;;;16.05;;
84897;SDS011;75162;42.120;21.734;2024-03-07T06:40:55;24.13;;;15.27;;
84897;SDS011;75162;42.120;21.734;2024-03-07T06:43:22;24.08;;;14.90;;
84897;SDS011;75162;42.120;21.734;2024-03-07T06:45:48;19.60;;;13.63;;
84897;SDS011;75162;42.120;21.734;2024-03-07T06:48:15;20.52;;;12.88;;
84897;SDS011;75162;42.120;21.734;2024-03-07T06:50:42;20.58;;;14.35;;
84897;SDS011;75162;42.120;21.734;2024-03-07T06:53:09;21.98;;;14.10;;
84897;SDS011;75162;42.120;21.734;2024-03-07T06:55:35;20.23;;;12.90;;
84897;SDS011;75162;42.120;21.734;2024-03-07T06:58:03;21.15;;;14.32;;
84897;SDS011;75162;42.120;21.734;2024-03-07T07:00:30;21.20;;;14.90;;
84897;SDS011;75162;42.120;21.734;2024-03-07T07:03:03;21.02;;;14.32;;
84897;SDS011;75162;42.120;21.734;2024-03-07T07:05:30;19.23;;;12.35;;
84897;SDS011;75162;42.120;21.734;2024-03-07T07:07:56;19.65;;;13.05;;
84897;SDS011;75162;42.120;21.734;2024-03-07T07:10:24;14.68;;;10.65;;
84897;SDS011;75162;42.120;21.734;2024-03-07T07:12:51;11.38;;;8.13;;
84897;SDS011;75162;42.120;21.734;2024-03-07T07:15:19;13.07;;;8.15;;
84897;SDS011;75162;42.120;21.734;2024-03-07T07:17:47;13.50;;;8.73;;
84897;SDS011;75162;42.120;21.734;2024-03-07T07:20:17;9.68;;;7.03;;
84897;SDS011;75162;42.120;21.734;2024-03-07T07:22:44;12.57;;;8.18;;
84897;SDS011;75162;42.120;21.734;2024-03-07T07:25:14;9.52;;;5.95;;
84897;SDS011;75162;42.120;21.734;2024-03-07T07:27:42;9.70;;;5.97;;
84897;SDS011;75162;42.120;21.734;2024-03-07T07:30:09;7.18;;;5.15;;
84897;SDS011;75162;42.120;21.734;2024-03-07T07:32:36;9.13;;;6.13;;
84897;SDS011;75162;42.120;21.734;2024-03-07T07:35:02;8.10;;;6.05;;
84897;SDS011;75162;42.120;21.734;2024-03-07T07:37:30;6.57;;;4.25;;
84897;SDS011;75162;42.120;21.734;2024-03-07T07:39:57;5.03;;;3.60;;
84897;SDS011;75162;42.120;21.734;2024-03-07T07:42:24;7.10;;;4.15;;
84897;SDS011;75162;42.120;21.734;2024-03-07T07:44:50;9.85;;;5.40;;
84897;SDS011;75162;42.120;21.734;2024-03-07T07:47:17;5.32;;;3.70;;
84897;SDS011;75162;42.120;21.734;2024-03-07T07:49:44;4.97;;;3.40;;
84897;SDS011;75162;42.120;21.734;2024-03-07T07:52:10;5.68;;;3.38;;
84897;SDS011;75162;42.120;21.734;2024-03-07T07:54:40;6.88;;;4.50;;
84897;SDS011;75162;42.120;21.734;2024-03-07T07:57:06;10.10;;;5.57;;
84897;SDS011;75162;42.120;21.734;2024-03-07T07:59:33;7.15;;;4.85;;
84897;SDS011;75162;42.120;21.734;2024-03-07T08:01:59;5.20;;;3.67;;
84897;SDS011;75162;42.120;21.734;2024-03-07T08:04:26;5.97;;;3.03;;
84897;SDS011;75162;42.120;21.734;2024-03-07T08:06:55;5.07;;;3.30;;
84897;SDS011;75162;42.120;21.734;2024-03-07T08:09:21;5.70;;;4.78;;
84897;SDS011;75162;42.120;21.734;2024-03-07T08:11:47;51.13;;;27.90;;
84897;SDS011;75162;42.120;21.734;2024-03-07T08:14:15;5.35;;;4.43;;
84897;SDS011;75162;42.120;21.734;2024-03-07T08:16:41;6.38;;;4.35;;
84897;SDS011;75162;42.120;21.734;2024-03-07T08:19:07;9.40;;;6.07;;
84897;SDS011;75162;42.120;21.734;2024-03-07T08:21:35;9.23;;;4.60;;
84897;SDS011;75162;42.120;21.734;2024-03-07T08:24:02;6.30;;;3.42;;
84897;SDS011;75162;42.120;21.734;2024-03-07T08:26:35;5.43;;;2.85;;
84897;SDS011;75162;42.120;21.734;2024-03-07T08:29:02;4.13;;;3.33;;
84897;SDS011;75162;42.120;21.734;2024-03-07T08:31:28;5.88;;;2.88;;
84897;SDS011;75162;42.120;21.734;2024-03-07T08:33:54;5.97;;;3.08;;
84897;SDS011;75162;42.120;21.734;2024-03-07T08:36:21;3.78;;;2.58;;
84897;SDS011;75162;42.120;21.734;2024-03-07T08:38:47;3.63;;;2.90;;
84897;SDS011;75162;42.120;21.734;2024-03-07T08:41:13;5.65;;;3.92;;
84897;SDS011;75162;42.120;21.734;2024-03-07T08:43:40;9.65;;;5.95;;
84897;SDS011;75162;42.120;21.734;2024-03-07T08:46:06;6.32;;;3.58;;
84897;SDS011;75162;42.120;21.734;2024-03-07T08:48:35;6.30;;;3.22;;
84897;SDS011;75162;42.120;21.734;2024-03-07T08:51:01;6.03;;;2.63;;
84897;SDS011;75162;42.120;21.734;2024-03-07T08:53:28;6.80;;;1.92;;
84897;SDS011;75162;42.120;21.734;2024-03-07T08:55:54;3.08;;;1.83;;
84897;SDS011;75162;42.120;21.734;2024-03-07T08:58:26;3.60;;;2.00;;
84897;SDS011;75162;42.120;21.734;2024-03-07T09:00:53;3.47;;;2.20;;
84897;SDS011;75162;42.120;21.734;2024-03-07T09:03:19;3.88;;;1.63;;
84897;SDS011;75162;42.120;21.734;2024-03-07T09:05:46;5.13;;;3.13;;
84897;SDS011;75162;42.120;21.734;2024-03-07T09:08:13;4.93;;;2.53;;
84897;SDS011;75162;42.120;21.734;2024-03-07T09:10:39;8.27;;;4.57;;
84897;SDS011;75162;42.120;21.734;2024-03-07T09:13:06;2.97;;;2.35;;
84897;SDS011;75162;42.120;21.734;2024-03-07T09:15:32;3.72;;;1.88;;
84897;SDS011;75162;42.120;21.734;2024-03-07T09:18:01;4.30;;;1.67;;
84897;SDS011;75162;42.120;21.734;2024-03-07T09:20:28;4.57;;;1.60;;
84897;SDS011;75162;42.120;21.734;2024-03-07T09:22:56;2.70;;;1.08;;
84897;SDS011;75162;42.120;21.734;2024-03-07T09:25:25;4.40;;;1.33;;
84897;SDS011;75162;42.120;21.734;2024-03-07T09:27:52;3.08;;;1.88;;
84897;SDS011;75162;42.120;21.734;2024-03-07T09:30:19;2.85;;;1.30;;
84897;SDS011;75162;42.120;21.734;2024-03-07T09:32:49;2.78;;;1.70;;
84897;SDS011;75162;42.120;21.734;2024-03-07T09:35:16;4.53;;;1.45;;
84897;SDS011;75162;42.120;21.734;2024-03-07T09:37:45;8.10;;;1.88;;
84897;SDS011;75162;42.120;21.734;2024-03-07T09:40:12;4.53;;;1.77;;
84897;SDS011;75162;42.120;21.734;2024-03-07T09:42:42;5.97;;;1.52;;
84897;SDS011;75162;42.120;21.734;2024-03-07T09:45:10;3.15;;;1.30;;
84897;SDS011;75162;42.120;21.734;2024-03-07T09:47:40;2.85;;;1.10;;
84897;SDS011;75162;42.120;21.734;2024-03-07T09:50:07;4.15;;;1.40;;
84897;SDS011;75162;42.120;21.734;2024-03-07T09:52:33;2.88;;;1.00;;
84897;SDS011;75162;42.120;21.734;2024-03-07T09:55:01;4.20;;;2.20;;
84897;SDS011;75162;42.120;21.734;2024-03-07T09:57:28;5.20;;;1.40;;
84897;SDS011;75162;42.120;21.734;2024-03-07T09:59:57;4.43;;;1.00;;
84897;SDS011;75162;42.120;21.734;2024-03-07T10:02:26;5.75;;;1.48;;
84897;SDS011;75162;42.120;21.734;2024-03-07T10:04:54;6.38;;;1.73;;
84897;SDS011;75162;42.120;21.734;2024-03-07T10:07:20;4.18;;;1.13;;
84897;SDS011;75162;42.120;21.734;2024-03-07T10:09:47;1.63;;;0.73;;
84897;SDS011;75162;42.120;21.734;2024-03-07T10:12:16;3.95;;;1.10;;
84897;SDS011;75162;42.120;21.734;2024-03-07T10:15:17;3.92;;;1.60;;
84897;SDS011;75162;42.120;21.734;2024-03-07T10:17:38;4.07;;;1.52;;
84897;SDS011;75162;42.120;21.734;2024-03-07T10:20:08;3.63;;;1.25;;
84897;SDS011;75162;42.120;21.734;2024-03-07T10:22:36;2.50;;;1.10;;
84897;SDS011;75162;42.120;21.734;2024-03-07T10:25:05;2.83;;;1.40;;
84897;SDS011;75162;42.120;21.734;2024-03-07T10:27:35;2.42;;;1.10;;
84897;SDS011;75162;42.120;21.734;2024-03-07T10:30:02;3.15;;;1.00;;
84897;SDS011;75162;42.120;21.734;2024-03-07T10:32:32;2.78;;;1.10;;
84897;SDS011;75162;42.120;21.734;2024-03-07T10:34:59;1.92;;;1.30;;
84897;SDS011;75162;42.120;21.734;2024-03-07T10:37:28;4.88;;;1.40;;
84897;SDS011;75162;42.120;21.734;2024-03-07T10:39:57;3.63;;;1.70;;
84897;SDS011;75162;42.120;21.734;2024-03-07T10:42:23;4.15;;;1.55;;
84897;SDS011;75162;42.120;21.734;2024-03-07T10:44:55;7.50;;;3.47;;
84897;SDS011;75162;42.120;21.734;2024-03-07T10:47:26;7.85;;;4.72;;
84897;SDS011;75162;42.120;21.734;2024-03-07T10:52:28;4.43;;;1.48;;
84897;SDS011;75162;42.120;21.734;2024-03-07T10:55:00;4.05;;;1.30;;
84897;SDS011;75162;42.120;21.734;2024-03-07T10:57:33;2.58;;;0.98;;
84897;SDS011;75162;42.120;21.734;2024-03-07T11:00:04;5.97;;;1.63;;
84897;SDS011;75162;42.120;21.734;2024-03-07T11:02:51;2.28;;;1.15;;
84897;SDS011;75162;42.120;21.734;2024-03-07T11:05:19;2.38;;;1.23;;
84897;SDS011;75162;42.120;21.734;2024-03-07T11:07:52;3.10;;;1.80;;
84897;SDS011;75162;42.120;21.734;2024-03-07T11:10:19;2.45;;;1.60;;
84897;SDS011;75162;42.120;21.734;2024-03-07T11:12:49;6.20;;;1.67;;
84897;SDS011;75162;42.120;21.734;2024-03-07T11:15:17;6.15;;;1.83;;
84897;SDS011;75162;42.120;21.734;2024-03-07T11:17:49;4.82;;;2.38;;
84897;SDS011;75162;42.120;21.734;2024-03-07T11:20:19;8.15;;;1.50;;
84897;SDS011;75162;42.120;21.734;2024-03-07T11:22:49;9.50;;;3.45;;
84897;SDS011;75162;42.120;21.734;2024-03-07T11:25:18;13.65;;;9.05;;
84897;SDS011;75162;42.120;21.734;2024-03-07T11:27:57;38.67;;;16.58;;
84897;SDS011;75162;42.120;21.734;2024-03-07T11:30:24;29.75;;;12.63;;
84897;SDS011;75162;42.120;21.734;2024-03-07T11:32:51;14.10;;;5.53;;
84897;SDS011;75162;42.120;21.734;2024-03-07T11:35:19;14.55;;;9.77;;
84897;SDS011;75162;42.120;21.734;2024-03-07T11:37:56;9.73;;;5.40;;
84897;SDS011;75162;42.120;21.734;2024-03-07T11:42:49;14.40;;;6.93;;
84897;SDS011;75162;42.120;21.734;2024-03-07T11:45:19;9.68;;;3.53;;
84897;SDS011;75162;42.120;21.734;2024-03-07T11:47:58;5.15;;;2.85;;
84897;SDS011;75162;42.120;21.734;2024-03-07T11:50:37;6.95;;;3.35;;
84897;SDS011;75162;42.120;21.734;2024-03-07T11:53:04;5.85;;;2.42;;
84897;SDS011;75162;42.120;21.734;2024-03-07T11:55:31;44.28;;;20.80;;
84897;SDS011;75162;42.120;21.734;2024-03-07T11:58:27;10.57;;;4.78;;
84897;SDS011;75162;42.120;21.734;2024-03-07T12:00:57;87.13;;;39.40;;
84897;SDS011;75162;42.120;21.734;2024-03-07T12:03:24;63.90;;;28.77;;
84897;SDS011;75162;42.120;21.734;2024-03-07T12:06:00;16.02;;;7.70;;
84897;SDS011;75162;42.120;21.734;2024-03-07T12:08:26;12.60;;;5.38;;
84897;SDS011;75162;42.120;21.734;2024-03-07T12:10:53;11.85;;;6.57;;
84897;SDS011;75162;42.120;21.734;2024-03-07T12:13:21;29.10;;;16.85;;
84897;SDS011;75162;42.120;21.734;2024-03-07T12:15:53;7.53;;;3.92;;
84897;SDS011;75162;42.120;21.734;2024-03-07T12:20:47;10.15;;;4.65;;
84897;SDS011;75162;42.120;21.734;2024-03-07T12:23:23;44.67;;;19.70;;
84897;SDS011;75162;42.120;21.734;2024-03-07T12:26:02;10.18;;;4.20;;
84897;SDS011;75162;42.120;21.734;2024-03-07T12:28:28;10.48;;;4.20;;
84897;SDS011;75162;42.120;21.734;2024-03-07T12:30:58;3.58;;;1.50;;
84897;SDS011;75162;42.120;21.734;2024-03-07T12:33:27;3.08;;;1.80;;
84897;SDS011;75162;42.120;21.734;2024-03-07T12:35:54;5.25;;;2.25;;
84897;SDS011;75162;42.120;21.734;2024-03-07T12:38:31;6.53;;;2.22;;
84897;SDS011;75162;42.120;21.734;2024-03-07T12:41:07;11.48;;;6.28;;
84897;SDS011;75162;42.120;21.734;2024-03-07T12:43:46;22.80;;;12.18;;
84897;SDS011;75162;42.120;21.734;2024-03-07T12:46:19;15.35;;;8.43;;
84897;SDS011;75162;42.120;21.734;2024-03-07T12:48:46;26.60;;;12.10;;
84897;SDS011;75162;42.120;21.734;2024-03-07T12:51:17;17.02;;;9.32;;
84897;SDS011;75162;42.120;21.734;2024-03-07T12:53:43;10.27;;;3.97;;
84897;SDS011;75162;42.120;21.734;2024-03-07T12:56:10;24.75;;;11.43;;
84897;SDS011;75162;42.120;21.734;2024-03-07T12:58:41;10.68;;;5.53;;
84897;SDS011;75162;42.120;21.734;2024-03-07T13:01:08;12.07;;;5.30;;
84897;SDS011;75162;42.120;21.734;2024-03-07T13:03:35;6.88;;;3.95;;
84897;SDS011;75162;42.120;21.734;2024-03-07T13:06:03;4.28;;;1.67;;
84897;SDS011;75162;42.120;21.734;2024-03-07T13:08:30;6.68;;;2.42;;
84897;SDS011;75162;42.120;21.734;2024-03-07T13:10:58;4.85;;;2.17;;
84897;SDS011;75162;42.120;21.734;2024-03-07T13:13:27;11.10;;;5.55;;
84897;SDS011;75162;42.120;21.734;2024-03-07T13:15:54;11.07;;;6.43;;
84897;SDS011;75162;42.120;21.734;2024-03-07T13:18:21;27.40;;;15.98;;
84897;SDS011;75162;42.120;21.734;2024-03-07T13:20:48;18.50;;;11.00;;
84897;SDS011;75162;42.120;21.734;2024-03-07T13:23:15;21.38;;;13.52;;
84897;SDS011;75162;42.120;21.734;2024-03-07T13:25:41;13.70;;;6.82;;
84897;SDS011;75162;42.120;21.734;2024-03-07T13:28:13;14.60;;;5.88;;
84897;SDS011;75162;42.120;21.734;2024-03-07T13:30:49;13.73;;;6.57;;
84897;SDS011;75162;42.120;21.734;2024-03-07T13:33:19;10.82;;;5.05;;
84897;SDS011;75162;42.120;21.734;2024-03-07T13:35:46;10.15;;;5.13;;
84897;SDS011;75162;42.120;21.734;2024-03-07T13:38:13;8.43;;;5.50;;
84897;SDS011;75162;42.120;21.734;2024-03-07T13:40:42;10.30;;;5.60;;
84897;SDS011;75162;42.120;21.734;2024-03-07T13:43:08;5.50;;;3.35;;
84897;SDS011;75162;42.120;21.734;2024-03-07T13:45:35;19.55;;;9.60;;
84897;SDS011;75162;42.120;21.734;2024-03-07T13:48:06;10.15;;;4.93;;
84897;SDS011;75162;42.120;21.734;2024-03-07T13:50:35;7.90;;;2.50;;
84897;SDS011;75162;42.120;21.734;2024-03-07T13:53:11;5.07;;;1.92;;
84897;SDS011;75162;42.120;21.734;2024-03-07T13:55:57;6.43;;;2.47;;
84897;SDS011;75162;42.120;21.734;2024-03-07T13:58:36;10.68;;;3.72;;
84897;SDS011;75162;42.120;21.734;2024-03-07T14:01:23;5.25;;;2.25;;
84897;SDS011;75162;42.120;21.734;2024-03-07T14:06:48;11.57;;;4.57;;
84897;SDS011;75162;42.120;21.734;2024-03-07T14:20:16;4.53;;;2.30;;
84897;SDS011;75162;42.120;21.734;2024-03-07T14:25:34;10.27;;;6.28;;
84897;SDS011;75162;42.120;21.734;2024-03-07T14:30:51;31.27;;;14.05;;
84897;SDS011;75162;42.120;21.734;2024-03-07T14:36:18;13.40;;;7.25;;
84897;SDS011;75162;42.120;21.734;2024-03-07T14:38:53;11.98;;;6.93;;
84897;SDS011;75162;42.120;21.734;2024-03-07T14:41:24;6.28;;;3.30;;
84897;SDS011;75162;42.120;21.734;2024-03-07T14:44:03;17.08;;;7.10;;
84897;SDS011;75162;42.120;21.734;2024-03-07T14:46:32;11.85;;;3.75;;
84897;SDS011;75162;42.120;21.734;2024-03-07T14:49:00;15.82;;;7.55;;
84897;SDS011;75162;42.120;21.734;2024-03-07T14:51:26;16.48;;;8.77;;
84897;SDS011;75162;42.120;21.734;2024-03-07T14:53:53;6.22;;;3.35;;
84897;SDS011;75162;42.120;21.734;2024-03-07T14:56:19;7.10;;;3.60;;
84897;SDS011;75162;42.120;21.734;2024-03-07T14:58:46;6.25;;;2.35;;